Time;durP1;ratioP1;P1;durP2;ratioP2;P2;SDS_P1;SDS_P2;PMS_P1;PMS_P2;Temp;Humidity;BMP_temperature;BMP_pressure;BME280_temperature;BME280_humidity;BME280_pressure;Samples;Min_cycle;Max_cycle;Signal;HPM_P1;HPM_P2
2023/08/06 00:02:12;;;;;;;6.20;4.60;;;16.20;99.90;;;;;;5028519;28;20269;-48
2023/08/06 00:04:38;;;;;;;5.68;4.13;;;16.10;99.90;;;;;;5027970;28;20083;-48
2023/08/06 00:07:04;;;;;;;4.68;4.28;;;16.20;99.90;;;;;;5027973;28;20044;-46
2023/08/06 00:09:29;;;;;;;5.60;4.38;;;16.10;99.90;;;;;;5025471;28;20029;-46
2023/08/06 00:11:55;;;;;;;6.03;4.15;;;16.10;99.90;;;;;;5028056;28;20034;-47
2023/08/06 00:14:20;;;;;;;5.20;4.32;;;16.10;99.90;;;;;;5027931;28;20456;-47
2023/08/06 00:16:46;;;;;;;9.45;4.70;;;16.10;99.90;;;;;;5028351;28;20491;-46
2023/08/06 00:19:12;;;;;;;6.93;4.45;;;16.10;99.90;;;;;;5010423;28;20045;-47
2023/08/06 00:21:37;;;;;;;6.63;4.53;;;16.10;99.90;;;;;;5027824;28;20578;-47
2023/08/06 00:24:03;;;;;;;5.07;4.50;;;16.00;99.90;;;;;;5028999;28;20480;-47
2023/08/06 00:26:28;;;;;;;6.10;4.32;;;16.00;99.90;;;;;;5031901;28;20034;-46
2023/08/06 00:28:54;;;;;;;4.65;4.25;;;16.00;99.90;;;;;;5031956;28;20025;-50
2023/08/06 00:31:19;;;;;;;5.45;3.85;;;16.00;99.90;;;;;;5031875;28;20041;-48
2023/08/06 00:33:45;;;;;;;4.40;4.00;;;16.00;99.90;;;;;;5031263;28;20273;-46
2023/08/06 00:36:10;;;;;;;6.35;4.40;;;15.90;99.90;;;;;;5031525;28;20021;-50
2023/08/06 00:38:36;;;;;;;6.53;4.75;;;15.90;99.90;;;;;;5031647;28;20144;-47
2023/08/06 00:41:01;;;;;;;5.20;4.70;;;15.90;99.90;;;;;;5031820;28;20469;-47
2023/08/06 00:43:27;;;;;;;4.55;4.15;;;15.90;99.90;;;;;;5013491;28;20326;-48
2023/08/06 00:45:52;;;;;;;5.88;3.80;;;15.90;99.90;;;;;;5031860;28;20122;-47
2023/08/06 00:48:19;;;;;;;6.85;4.15;;;15.90;99.90;;;;;;5031617;28;20030;-47
2023/08/06 00:50:44;;;;;;;4.85;3.95;;;15.90;99.90;;;;;;5031846;28;20104;-47
2023/08/06 00:53:10;;;;;;;5.43;3.88;;;15.90;99.90;;;;;;5013358;28;20579;-47
2023/08/06 00:55:36;;;;;;;4.53;4.00;;;15.90;99.90;;;;;;5031410;28;20030;-48
2023/08/06 00:58:02;;;;;;;4.93;4.35;;;15.90;99.90;;;;;;5031775;28;20338;-47
2023/08/06 01:00:27;;;;;;;5.35;4.18;;;15.90;99.90;;;;;;5031447;28;20025;-46
2023/08/06 01:02:53;;;;;;;5.82;3.60;;;15.90;99.90;;;;;;5013048;28;20060;-46
2023/08/06 01:05:20;;;;;;;3.92;3.50;;;15.90;99.90;;;;;;5013615;28;20562;-46
2023/08/06 01:08:11;;;;;;;4.35;3.70;;;15.90;99.90;;;;;;5031336;28;20033;-47
2023/08/06 01:10:59;;;;;;;4.57;4.00;;;15.90;99.90;;;;;;5013611;28;20025;-47
2023/08/06 01:13:40;;;;;;;7.65;4.15;;;15.90;99.90;;;;;;5030932;28;20123;-46
2023/08/06 01:16:07;;;;;;;4.60;4.07;;;15.90;99.90;;;;;;5030911;28;20267;-45
2023/08/06 01:18:33;;;;;;;4.85;3.80;;;15.80;99.90;;;;;;5031134;28;20058;-44
2023/08/06 01:20:58;;;;;;;6.55;4.55;;;15.90;99.90;;;;;;5031080;28;20028;-46
2023/08/06 01:23:24;;;;;;;5.65;3.85;;;15.90;99.90;;;;;;5030602;28;20128;-46
2023/08/06 01:26:23;;;;;;;4.75;4.30;;;15.90;99.90;;;;;;5031514;28;20029;-45
2023/08/06 01:28:52;;;;;;;5.00;4.00;;;15.90;99.90;;;;;;5008275;28;20135;-46
2023/08/06 01:31:31;;;;;;;4.80;4.20;;;15.90;99.90;;;;;;5012824;28;20554;-47
2023/08/06 01:33:59;;;;;;;4.95;3.92;;;15.90;99.90;;;;;;5029823;28;20185;-46
2023/08/06 01:36:25;;;;;;;4.95;4.30;;;15.90;99.90;;;;;;5029936;28;20488;-45
2023/08/06 01:38:55;;;;;;;4.80;4.38;;;15.90;99.90;;;;;;5030665;28;20071;-46
2023/08/06 01:41:20;;;;;;;6.07;4.15;;;15.90;99.90;;;;;;5030580;28;20559;-46
2023/08/06 01:43:46;;;;;;;9.55;4.18;;;15.90;99.90;;;;;;5029743;28;20029;-45
2023/08/06 01:46:11;;;;;;;4.65;3.95;;;15.90;99.90;;;;;;5030374;28;20037;-46
2023/08/06 01:48:37;;;;;;;7.05;4.20;;;15.80;99.90;;;;;;5030406;28;20025;-45
2023/08/06 01:51:06;;;;;;;4.40;3.75;;;15.80;99.90;;;;;;5030347;28;20416;-45
2023/08/06 01:53:32;;;;;;;4.45;3.60;;;15.80;99.90;;;;;;5029777;28;20462;-45
2023/08/06 01:55:58;;;;;;;5.50;3.78;;;15.80;99.90;;;;;;5030096;28;20029;-46
2023/08/06 01:58:23;;;;;;;4.20;3.70;;;15.80;99.90;;;;;;5030227;28;20094;-46
2023/08/06 02:00:49;;;;;;;5.93;3.30;;;15.80;99.90;;;;;;5030142;28;20022;-46
2023/08/06 02:03:14;;;;;;;4.85;3.35;;;15.70;99.90;;;;;;5027657;28;20032;-46
2023/08/06 02:05:40;;;;;;;4.25;3.85;;;15.70;99.90;;;;;;5012208;28;20383;-45
2023/08/06 02:08:06;;;;;;;4.97;4.18;;;15.70;99.90;;;;;;5029836;28;20060;-46
2023/08/06 02:10:31;;;;;;;4.15;3.58;;;15.70;99.90;;;;;;5029897;28;20036;-46
2023/08/06 02:12:57;;;;;;;5.47;3.88;;;15.70;99.90;;;;;;5029119;28;20324;-47
2023/08/06 02:15:22;;;;;;;5.10;3.65;;;15.70;99.90;;;;;;5011644;28;20045;-47
2023/08/06 02:17:48;;;;;;;3.00;2.80;;;15.70;99.90;;;;;;5018084;28;20033;-46
2023/08/06 02:20:13;;;;;;;6.82;3.03;;;15.60;99.90;;;;;;5029979;28;20478;-47
2023/08/06 02:22:39;;;;;;;4.00;3.10;;;15.60;99.90;;;;;;5029658;28;20030;-46
2023/08/06 02:25:05;;;;;;;6.70;3.40;;;15.50;99.90;;;;;;5029413;28;20034;-47
2023/08/06 02:27:30;;;;;;;3.55;3.17;;;15.50;99.90;;;;;;5029490;28;20029;-48
2023/08/06 02:29:56;;;;;;;5.95;3.75;;;15.50;99.90;;;;;;5011770;28;20029;-47
2023/08/06 02:32:21;;;;;;;3.40;3.10;;;15.50;99.90;;;;;;5011792;28;20029;-48
2023/08/06 02:34:47;;;;;;;5.20;3.20;;;15.50;99.90;;;;;;5029035;28;20037;-46
2023/08/06 02:37:12;;;;;;;4.38;3.08;;;15.50;99.90;;;;;;5011638;28;20040;-46
2023/08/06 02:39:39;;;;;;;3.20;2.80;;;15.50;99.90;;;;;;5029558;28;20032;-46
2023/08/06 02:42:07;;;;;;;3.67;2.97;;;15.50;99.90;;;;;;5029661;28;20017;-50
2023/08/06 02:44:33;;;;;;;3.97;3.10;;;15.50;99.90;;;;;;5029162;28;20033;-47
2023/08/06 02:46:59;;;;;;;3.33;2.67;;;15.40;99.90;;;;;;5029398;28;20284;-46
2023/08/06 02:49:25;;;;;;;4.95;3.00;;;15.40;99.90;;;;;;5029278;28;20095;-46
2023/08/06 02:51:50;;;;;;;3.20;3.00;;;15.50;99.90;;;;;;5029189;28;20171;-46
2023/08/06 02:54:16;;;;;;;2.80;2.60;;;15.40;99.90;;;;;;5028367;28;20428;-47
2023/08/06 02:56:46;;;;;;;5.93;3.00;;;15.40;99.90;;;;;;5011228;28;20593;-49
2023/08/06 02:59:12;;;;;;;4.88;2.92;;;15.40;99.90;;;;;;5029080;28;20037;-46
2023/08/06 03:01:38;;;;;;;3.67;2.97;;;15.30;99.90;;;;;;5029338;28;20026;-47
2023/08/06 03:04:04;;;;;;;5.55;3.35;;;15.30;99.90;;;;;;5028294;28;20036;-49
2023/08/06 03:06:29;;;;;;;3.92;3.50;;;15.30;99.90;;;;;;5029265;28;20025;-46
2023/08/06 03:08:55;;;;;;;3.53;3.05;;;15.20;99.90;;;;;;5028995;28;20029;-46
2023/08/06 03:11:20;;;;;;;3.20;2.63;;;15.20;99.90;;;;;;5029271;28;20029;-47
2023/08/06 03:13:47;;;;;;;3.25;2.58;;;15.20;99.90;;;;;;5010780;28;20141;-46
2023/08/06 03:16:13;;;;;;;3.50;3.20;;;15.20;99.90;;;;;;5029226;28;20036;-45
2023/08/06 03:18:38;;;;;;;3.90;3.28;;;15.20;99.90;;;;;;5028863;28;20017;-45
2023/08/06 03:21:04;;;;;;;4.00;3.38;;;15.20;99.90;;;;;;5028725;28;20092;-46
2023/08/06 03:23:29;;;;;;;5.05;2.80;;;15.10;99.90;;;;;;5028316;28;20075;-46
2023/08/06 03:25:55;;;;;;;6.18;3.00;;;15.10;99.90;;;;;;5011067;28;20306;-46
2023/08/06 03:28:22;;;;;;;4.38;3.25;;;15.10;99.90;;;;;;5028670;28;20030;-48
2023/08/06 03:30:48;;;;;;;4.68;3.55;;;15.10;99.90;;;;;;5028233;28;20025;-46
2023/08/06 03:33:13;;;;;;;5.13;3.40;;;15.20;99.90;;;;;;5025953;28;20037;-48
2023/08/06 03:35:40;;;;;;;4.15;3.15;;;15.10;99.90;;;;;;5028821;28;20060;-48
2023/08/06 03:38:05;;;;;;;3.42;3.13;;;15.10;99.90;;;;;;5028715;28;20030;-47
2023/08/06 03:40:31;;;;;;;5.32;3.55;;;15.10;99.90;;;;;;5028654;28;20388;-47
2023/08/06 03:42:56;;;;;;;4.35;3.47;;;15.10;99.90;;;;;;5027986;28;20028;-49
2023/08/06 03:45:22;;;;;;;3.80;3.40;;;15.10;99.90;;;;;;5028755;28;20087;-48
2023/08/06 03:47:48;;;;;;;4.45;3.20;;;15.20;99.90;;;;;;5010768;28;20021;-46
2023/08/06 03:50:13;;;;;;;4.10;3.72;;;15.20;99.90;;;;;;5028852;28;20044;-49
2023/08/06 03:52:39;;;;;;;3.85;3.45;;;15.10;99.90;;;;;;5027891;28;20468;-47
2023/08/06 03:55:04;;;;;;;4.65;3.60;;;15.20;99.90;;;;;;5027776;28;20481;-50
2023/08/06 03:57:30;;;;;;;3.38;3.08;;;15.20;99.90;;;;;;5028255;28;20105;-50
2023/08/06 03:59:55;;;;;;;3.60;3.30;;;15.20;99.90;;;;;;5031920;28;20024;-48
2023/08/06 04:02:21;;;;;;;2.95;2.72;;;15.20;99.90;;;;;;5014579;28;20032;-46
2023/08/06 04:04:46;;;;;;;4.63;3.63;;;15.30;99.90;;;;;;5032183;28;20041;-46
2023/08/06 04:07:12;;;;;;;3.58;3.17;;;15.20;99.90;;;;;;5032554;28;20506;-49
2023/08/06 04:09:58;;;;;;;3.45;3.05;;;15.20;99.90;;;;;;5032447;28;20109;-50
2023/08/06 04:12:23;;;;;;;5.10;3.17;;;15.20;99.90;;;;;;5032249;28;20052;-45
2023/08/06 04:14:52;;;;;;;5.30;3.55;;;15.20;99.90;;;;;;5031817;28;20018;-46
2023/08/06 04:17:20;;;;;;;4.03;3.35;;;15.20;99.90;;;;;;5032386;28;20017;-46
2023/08/06 04:19:47;;;;;;;3.92;3.55;;;15.20;99.90;;;;;;5031619;28;20030;-47
2023/08/06 04:22:13;;;;;;;3.45;3.15;;;15.20;99.90;;;;;;5031504;28;20017;-47
2023/08/06 04:24:38;;;;;;;4.57;3.65;;;15.20;99.90;;;;;;5031101;28;20490;-48
2023/08/06 04:27:04;;;;;;;4.90;4.00;;;15.20;99.90;;;;;;5031651;28;20043;-46
2023/08/06 04:29:30;;;;;;;4.18;3.40;;;15.30;99.90;;;;;;5031375;28;20114;-47
2023/08/06 04:31:55;;;;;;;5.85;4.30;;;15.30;99.90;;;;;;5031573;28;20044;-46
2023/08/06 04:34:21;;;;;;;5.90;4.28;;;15.20;99.90;;;;;;5013348;28;20274;-47
2023/08/06 04:36:46;;;;;;;5.55;4.60;;;15.20;99.90;;;;;;5014113;28;20056;-50
2023/08/06 04:39:11;;;;;;;4.97;4.32;;;15.30;99.90;;;;;;5031488;28;20060;-48
2023/08/06 04:41:37;;;;;;;5.38;4.22;;;15.30;99.90;;;;;;5031750;28;20053;-46
2023/08/06 04:44:04;;;;;;;4.32;3.83;;;15.30;99.90;;;;;;5031056;28;20448;-47
2023/08/06 04:46:29;;;;;;;4.45;3.92;;;15.30;99.90;;;;;;5014187;28;20029;-47
2023/08/06 04:48:55;;;;;;;5.60;4.15;;;15.30;99.90;;;;;;5013842;28;20492;-47
2023/08/06 04:51:20;;;;;;;5.32;4.07;;;15.30;99.90;;;;;;5031376;28;20377;-47
2023/08/06 04:53:46;;;;;;;4.10;3.70;;;15.30;99.90;;;;;;5030939;28;20647;-52
2023/08/06 04:56:11;;;;;;;6.15;3.92;;;15.30;99.90;;;;;;5031409;28;20029;-47
2023/08/06 04:58:37;;;;;;;3.97;3.58;;;15.30;99.90;;;;;;5031652;28;20071;-46
2023/08/06 05:01:02;;;;;;;5.22;3.72;;;15.30;99.90;;;;;;5031277;28;20573;-49
2023/08/06 05:03:28;;;;;;;4.85;4.32;;;15.40;99.90;;;;;;5030711;28;20083;-48
2023/08/06 05:05:53;;;;;;;4.13;3.45;;;15.40;99.90;;;;;;5031150;28;20059;-47
2023/08/06 05:08:19;;;;;;;4.50;4.10;;;15.30;99.90;;;;;;5013253;28;20137;-49
2023/08/06 05:10:45;;;;;;;6.35;4.20;;;15.40;99.90;;;;;;5029963;28;20025;-49
2023/08/06 05:13:10;;;;;;;4.82;4.32;;;15.40;99.90;;;;;;5030787;28;20048;-49
2023/08/06 05:15:36;;;;;;;3.95;3.55;;;15.40;99.90;;;;;;5030995;28;20026;-46
2023/08/06 05:18:01;;;;;;;5.60;4.53;;;15.40;99.90;;;;;;5031002;28;20037;-47
2023/08/06 05:20:27;;;;;;;5.07;4.53;;;15.40;99.90;;;;;;5029757;28;20060;-46
2023/08/06 05:22:52;;;;;;;5.47;4.80;;;15.50;99.90;;;;;;5012515;28;20021;-47
2023/08/06 05:25:18;;;;;;;4.35;3.92;;;15.50;99.90;;;;;;5030632;28;20044;-46
2023/08/06 05:27:43;;;;;;;4.45;3.88;;;15.50;99.90;;;;;;5030578;28;20033;-47
2023/08/06 05:30:10;;;;;;;6.13;4.03;;;15.50;99.90;;;;;;5030524;28;20025;-46
2023/08/06 05:32:35;;;;;;;7.85;4.25;;;15.50;99.90;;;;;;5030370;28;20040;-47
2023/08/06 05:35:01;;;;;;;5.10;4.60;;;15.60;99.90;;;;;;5020053;28;20033;-48
2023/08/06 05:37:26;;;;;;;5.53;4.93;;;15.60;99.90;;;;;;5030512;28;20018;-48
2023/08/06 05:39:52;;;;;;;7.38;4.93;;;15.70;99.90;;;;;;5030885;28;20455;-47
2023/08/06 05:42:18;;;;;;;6.35;4.82;;;15.70;99.90;;;;;;5030638;28;20025;-47
2023/08/06 05:44:43;;;;;;;4.85;4.15;;;15.70;99.90;;;;;;5030297;28;20033;-46
2023/08/06 05:47:09;;;;;;;8.90;4.15;;;15.70;99.90;;;;;;5030390;28;20018;-46
2023/08/06 05:49:34;;;;;;;4.57;4.18;;;15.80;99.90;;;;;;5012614;28;20025;-48
2023/08/06 05:52:00;;;;;;;6.85;4.50;;;15.80;99.90;;;;;;5030429;28;20514;-46
2023/08/06 05:54:25;;;;;;;5.07;4.57;;;15.80;99.90;;;;;;5029998;28;20467;-46
2023/08/06 05:56:51;;;;;;;4.82;4.00;;;15.90;99.90;;;;;;5012806;28;20052;-47
2023/08/06 05:59:16;;;;;;;4.10;3.70;;;15.90;99.90;;;;;;5030523;28;20044;-47
2023/08/06 06:01:42;;;;;;;7.00;4.20;;;15.90;99.90;;;;;;5011568;28;20071;-47
2023/08/06 06:04:07;;;;;;;4.97;4.38;;;15.90;99.90;;;;;;5029070;28;20029;-47
2023/08/06 06:06:33;;;;;;;4.13;3.72;;;16.00;99.90;;;;;;5029886;28;20483;-46
2023/08/06 06:08:58;;;;;;;6.18;3.28;;;16.00;99.90;;;;;;5030009;28;20036;-48
2023/08/06 06:11:24;;;;;;;4.28;3.60;;;16.10;99.90;;;;;;5029983;28;20365;-47
2023/08/06 06:13:51;;;;;;;5.63;3.67;;;16.10;99.90;;;;;;5029428;28;20060;-49
2023/08/06 06:16:16;;;;;;;5.45;4.18;;;16.20;99.90;;;;;;5029560;28;20439;-46
2023/08/06 06:18:42;;;;;;;5.22;4.30;;;16.20;99.90;;;;;;5030226;28;20029;-48
2023/08/06 06:21:07;;;;;;;5.68;3.65;;;16.20;99.90;;;;;;5011847;28;20018;-46
2023/08/06 06:23:33;;;;;;;4.18;3.60;;;16.20;99.90;;;;;;5029236;28;20112;-47
2023/08/06 06:25:59;;;;;;;5.13;4.35;;;16.30;99.90;;;;;;5029954;28;20494;-46
2023/08/06 06:28:25;;;;;;;4.93;4.10;;;16.30;99.90;;;;;;5030001;28;20100;-47
2023/08/06 06:30:51;;;;;;;4.57;4.13;;;16.30;99.90;;;;;;5029495;28;20108;-47
2023/08/06 06:33:17;;;;;;;3.72;3.33;;;16.40;99.90;;;;;;5029021;28;20101;-45
2023/08/06 06:35:42;;;;;;;5.40;3.72;;;16.40;99.90;;;;;;5029359;28;20440;-47
2023/08/06 06:38:08;;;;;;;4.50;4.03;;;16.50;99.90;;;;;;5029436;28;20025;-46
2023/08/06 06:40:33;;;;;;;4.40;3.90;;;16.60;99.90;;;;;;5029163;28;20026;-50
2023/08/06 06:42:59;;;;;;;4.57;3.90;;;16.70;99.90;;;;;;5029033;28;20026;-47
2023/08/06 06:45:24;;;;;;;4.18;3.35;;;16.80;99.90;;;;;;5029588;28;20033;-47
2023/08/06 06:47:50;;;;;;;3.70;2.95;;;16.90;99.90;;;;;;5029611;28;20025;-47
2023/08/06 06:50:17;;;;;;;7.43;3.72;;;17.00;99.90;;;;;;5029257;28;20049;-46
2023/08/06 06:52:42;;;;;;;3.22;2.92;;;17.10;99.90;;;;;;5029020;28;20025;-47
2023/08/06 06:55:08;;;;;;;5.32;3.55;;;17.20;99.90;;;;;;5028853;28;20027;-49
2023/08/06 06:57:33;;;;;;;6.07;3.20;;;17.20;99.90;;;;;;5029226;28;20064;-47
2023/08/06 06:59:59;;;;;;;5.28;3.28;;;17.30;99.90;;;;;;5028989;28;20024;-48
2023/08/06 07:02:24;;;;;;;3.72;3.40;;;17.40;99.90;;;;;;5028965;28;20022;-49
2023/08/06 07:04:50;;;;;;;4.40;3.70;;;17.50;99.90;;;;;;5029053;28;20026;-45
2023/08/06 07:07:15;;;;;;;3.78;3.17;;;17.40;99.90;;;;;;5029185;28;20064;-46
2023/08/06 07:09:41;;;;;;;3.30;3.00;;;17.50;99.90;;;;;;5029167;28;20404;-47
2023/08/06 07:12:07;;;;;;;8.13;3.35;;;17.60;99.90;;;;;;5029313;28;20026;-46
2023/08/06 07:14:32;;;;;;;5.88;3.38;;;17.60;99.90;;;;;;5028648;28;20530;-46
2023/08/06 07:16:58;;;;;;;4.20;3.38;;;17.60;99.90;;;;;;5011057;28;20124;-48
2023/08/06 07:19:23;;;;;;;4.90;3.50;;;17.70;99.90;;;;;;5028589;28;20055;-46
2023/08/06 07:21:49;;;;;;;5.57;3.00;;;17.70;99.90;;;;;;5028859;28;20053;-47
2023/08/06 07:24:14;;;;;;;4.20;3.67;;;17.70;99.90;;;;;;5028109;28;20029;-47
2023/08/06 07:26:40;;;;;;;3.13;2.83;;;17.70;99.90;;;;;;5028973;28;20028;-49
2023/08/06 07:29:05;;;;;;;3.72;3.08;;;17.70;99.90;;;;;;5028798;28;20024;-47
2023/08/06 07:31:31;;;;;;;3.50;2.75;;;17.70;99.90;;;;;;5028955;28;20045;-47
2023/08/06 07:33:56;;;;;;;3.75;2.50;;;17.70;99.90;;;;;;5027437;28;20389;-47
2023/08/06 07:36:22;;;;;;;3.70;2.75;;;17.80;99.90;;;;;;5028680;28;20080;-47
2023/08/06 07:38:51;;;;;;;3.20;2.53;;;17.90;99.90;;;;;;5028680;28;20100;-47
2023/08/06 07:41:17;;;;;;;2.38;2.17;;;18.00;99.90;;;;;;5028728;28;20010;-48
2023/08/06 07:43:42;;;;;;;2.85;2.20;;;18.10;99.90;;;;;;5028031;28;20024;-46
2023/08/06 07:46:08;;;;;;;3.15;2.58;;;18.10;99.90;;;;;;5028926;28;20445;-49
2023/08/06 07:48:33;;;;;;;2.72;2.53;;;18.30;99.90;;;;;;5028362;28;20103;-47
2023/08/06 07:50:59;;;;;;;4.22;2.90;;;18.30;99.90;;;;;;5010790;28;20496;-46
2023/08/06 07:53:29;;;;;;;2.50;2.30;;;18.50;99.90;;;;;;5027906;28;20062;-46
2023/08/06 07:55:55;;;;;;;3.00;2.67;;;18.60;99.90;;;;;;5029007;28;20036;-46
2023/08/06 07:58:21;;;;;;;4.72;2.70;;;18.70;99.90;;;;;;5028325;28;20026;-46
2023/08/06 08:00:47;;;;;;;3.63;3.25;;;18.80;99.90;;;;;;5028398;28;20108;-46
2023/08/06 08:03:13;;;;;;;3.65;2.60;;;18.90;99.90;;;;;;5027733;28;20035;-48
2023/08/06 08:05:40;;;;;;;2.90;2.40;;;18.90;99.90;;;;;;5028784;28;20018;-47
2023/08/06 08:08:05;;;;;;;4.60;2.72;;;19.10;99.90;;;;;;5028405;28;20017;-47
2023/08/06 08:10:32;;;;;;;3.55;2.22;;;19.30;99.90;;;;;;5029321;28;20040;-46
2023/08/06 08:12:58;;;;;;;3.90;2.13;;;19.50;99.90;;;;;;5028383;28;20032;-46
2023/08/06 08:15:26;;;;;;;4.13;2.30;;;19.60;99.90;;;;;;5011156;28;20037;-47
2023/08/06 08:17:52;;;;;;;2.45;2.25;;;19.80;99.90;;;;;;5028855;28;20014;-47
2023/08/06 08:20:17;;;;;;;4.03;1.90;;;20.10;99.90;;;;;;5028873;28;20465;-48
2023/08/06 08:22:43;;;;;;;4.18;2.13;;;20.30;99.90;;;;;;5028786;28;20022;-49
2023/08/06 08:25:09;;;;;;;6.07;2.05;;;20.50;99.90;;;;;;5029023;28;20123;-46
2023/08/06 08:27:34;;;;;;;2.63;1.55;;;20.60;99.90;;;;;;5011602;28;20026;-48
2023/08/06 08:30:00;;;;;;;2.22;1.63;;;20.70;99.90;;;;;;5029782;28;20420;-46
2023/08/06 08:32:25;;;;;;;2.60;1.80;;;21.10;99.90;;;;;;5028485;28;20171;-46
2023/08/06 08:34:51;;;;;;;1.20;1.10;;;21.40;99.90;;;;;;5010022;28;20116;-47
2023/08/06 08:37:16;;;;;;;2.17;1.70;;;22.00;99.90;;;;;;5026653;28;20284;-47
2023/08/06 08:39:42;;;;;;;1.70;1.60;;;22.40;99.90;;;;;;5028123;28;20021;-46
2023/08/06 08:42:09;;;;;;;1.90;1.73;;;22.90;99.90;;;;;;5028599;28;20089;-47
2023/08/06 08:44:39;;;;;;;2.60;1.63;;;23.30;99.90;;;;;;5029702;28;20030;-46
2023/08/06 08:47:10;;;;;;;1.77;1.10;;;23.80;99.90;;;;;;5014800;28;20040;-47
2023/08/06 08:49:38;;;;;;;1.73;1.55;;;24.00;99.90;;;;;;5032666;28;20022;-49
2023/08/06 08:52:10;;;;;;;2.75;1.33;;;24.60;99.90;;;;;;5014821;28;20449;-47
2023/08/06 08:54:38;;;;;;;1.60;1.40;;;25.00;99.90;;;;;;5032052;28;20029;-47
2023/08/06 08:57:04;;;;;;;1.45;1.25;;;25.10;97.10;;;;;;5032567;28;20096;-46
2023/08/06 08:59:30;;;;;;;1.30;1.20;;;25.00;98.10;;;;;;5032331;28;20028;-47
2023/08/06 09:01:56;;;;;;;1.52;1.25;;;24.90;98.60;;;;;;5032625;28;20017;-48
2023/08/06 09:04:23;;;;;;;1.35;1.25;;;24.80;96.70;;;;;;5031823;28;20053;-47
2023/08/06 09:06:51;;;;;;;1.60;1.50;;;24.70;97.10;;;;;;5032316;28;20055;-46
2023/08/06 09:09:37;;;;;;;3.58;1.60;;;24.20;97.50;;;;;;5032272;28;20048;-47
2023/08/06 09:12:15;;;;;;;3.75;1.48;;;24.00;98.90;;;;;;5032162;28;20389;-47
2023/08/06 09:14:40;;;;;;;1.77;1.30;;;23.50;98.50;;;;;;5014479;28;20028;-46
2023/08/06 09:17:06;;;;;;;2.60;1.50;;;23.30;98.50;;;;;;5014687;28;20096;-47
2023/08/06 09:19:32;;;;;;;1.48;1.38;;;23.30;99.80;;;;;;5014368;28;20022;-47
2023/08/06 09:21:59;;;;;;;3.20;1.42;;;23.30;98.50;;;;;;5032016;28;20052;-49
2023/08/06 09:24:26;;;;;;;2.80;1.50;;;23.60;98.90;;;;;;5031506;28;20022;-47
2023/08/06 09:26:52;;;;;;;1.60;1.45;;;24.50;98.50;;;;;;5031955;28;20490;-46
2023/08/06 09:29:17;;;;;;;1.92;1.40;;;25.40;97.00;;;;;;5031932;28;20216;-47
2023/08/06 09:31:47;;;;;;;1.40;1.30;;;25.70;96.40;;;;;;5031812;28;20056;-47
2023/08/06 09:34:23;;;;;;;2.65;1.27;;;26.40;97.00;;;;;;5029553;28;20362;-47
2023/08/06 09:36:56;;;;;;;1.33;1.15;;;27.50;96.60;;;;;;5031754;28;20094;-48
2023/08/06 09:39:26;;;;;;;2.05;1.10;;;28.50;93.80;;;;;;5031954;28;20025;-46
2023/08/06 09:41:59;;;;;;;2.30;1.10;;;29.20;91.10;;;;;;5031868;28;20022;-46
2023/08/06 09:44:26;;;;;;;1.20;1.10;;;29.00;87.20;;;;;;5013325;28;20022;-46
2023/08/06 09:46:56;;;;;;;1.90;1.33;;;29.60;85.50;;;;;;5031707;28;20017;-47
2023/08/06 09:49:27;;;;;;;1.20;1.02;;;29.70;86.10;;;;;;5031905;28;20089;-46
2023/08/06 09:51:55;;;;;;;2.15;1.20;;;29.70;85.10;;;;;;5031817;28;20017;-47
2023/08/06 09:54:22;;;;;;;2.45;1.00;;;30.50;83.20;;;;;;5030945;28;20480;-47
2023/08/06 09:56:48;;;;;;;1.20;1.10;;;30.50;81.70;;;;;;5030931;28;20017;-48
2023/08/06 09:59:15;;;;;;;1.10;1.00;;;30.70;81.60;;;;;;5031341;28;20024;-46
2023/08/06 10:01:41;;;;;;;1.40;1.30;;;30.70;79.70;;;;;;5031379;28;20405;-46
2023/08/06 10:04:12;;;;;;;2.05;1.08;;;30.90;79.00;;;;;;5030650;28;20018;-47
2023/08/06 10:06:38;;;;;;;1.30;1.20;;;30.90;80.80;;;;;;5013358;28;20444;-47
2023/08/06 10:09:04;;;;;;;1.55;1.45;;;31.00;83.90;;;;;;5031457;28;20022;-48
2023/08/06 10:11:31;;;;;;;1.20;1.10;;;31.60;80.20;;;;;;5031080;28;20388;-47
2023/08/06 10:14:10;;;;;;;1.20;1.10;;;32.00;73.60;;;;;;5030926;28;20026;-46
2023/08/06 10:16:36;;;;;;;1.75;1.10;;;32.10;73.70;;;;;;5031316;28;20326;-48
2023/08/06 10:19:05;;;;;;;1.40;1.30;;;31.70;73.50;;;;;;5031287;28;20642;-46
2023/08/06 10:21:33;;;;;;;1.27;1.17;;;31.70;74.20;;;;;;5030928;28;20021;-48
2023/08/06 10:23:59;;;;;;;0.88;0.88;;;30.60;76.50;;;;;;5030570;28;20013;-47
2023/08/06 10:26:29;;;;;;;1.30;1.20;;;30.30;77.90;;;;;;5030879;28;20109;-46
2023/08/06 10:28:55;;;;;;;1.35;1.25;;;29.80;77.30;;;;;;5030798;28;20435;-47
2023/08/06 10:31:40;;;;;;;2.13;1.70;;;29.70;78.60;;;;;;5030664;28;20021;-46
2023/08/06 10:34:07;;;;;;;1.35;1.25;;;29.50;76.00;;;;;;5030114;28;20053;-47
2023/08/06 10:36:33;;;;;;;1.95;1.30;;;29.50;77.50;;;;;;5012896;28;20068;-46
2023/08/06 10:38:58;;;;;;;1.10;1.00;;;29.80;77.30;;;;;;5030780;28;20021;-46
2023/08/06 10:41:28;;;;;;;1.40;1.30;;;29.90;77.20;;;;;;5030747;28;20132;-47
2023/08/06 10:44:06;;;;;;;;;;;29.50;78.80;;;;;;5030979;28;20018;-47
2023/08/06 10:46:31;;;;;;;0.98;0.93;;;30.00;80.30;;;;;;5030494;28;20123;-48
2023/08/06 10:48:57;;;;;;;1.52;1.00;;;30.00;77.30;;;;;;5012825;28;20074;-48
2023/08/06 10:51:22;;;;;;;2.35;1.10;;;30.50;76.60;;;;;;5030520;28;20036;-48
2023/08/06 10:53:51;;;;;;;1.10;1.00;;;31.60;73.90;;;;;;5029963;28;20096;-47
2023/08/06 10:56:18;;;;;;;1.23;1.13;;;32.50;73.60;;;;;;5030385;28;20026;-48
2023/08/06 10:58:47;;;;;;;1.55;1.17;;;32.50;70.90;;;;;;5030498;28;20327;-47
2023/08/06 11:01:13;;;;;;;2.30;1.40;;;33.10;70.60;;;;;;5012884;28;20016;-47
2023/08/06 11:03:40;;;;;;;0.98;0.98;;;33.20;69.30;;;;;;5029926;28;20033;-47
2023/08/06 11:06:09;;;;;;;5.18;1.17;;;33.50;67.90;;;;;;5030324;28;20018;-47
2023/08/06 11:08:36;;;;;;;1.00;0.90;;;32.70;70.50;;;;;;5029230;28;20512;-47
2023/08/06 11:11:13;;;;;;;1.33;1.23;;;32.40;70.80;;;;;;5030251;28;20030;-47
2023/08/06 11:13:49;;;;;;;1.95;1.23;;;32.70;68.30;;;;;;5029803;28;20465;-48
2023/08/06 11:16:16;;;;;;;1.27;1.17;;;31.60;72.20;;;;;;5029911;28;20018;-48
2023/08/06 11:18:42;;;;;;;1.20;1.10;;;30.90;71.30;;;;;;5030266;28;20477;-47
2023/08/06 11:21:08;;;;;;;1.52;1.33;;;30.30;71.10;;;;;;5030292;28;20053;-47
2023/08/06 11:23:35;;;;;;;1.52;1.40;;;29.50;71.90;;;;;;5011749;28;20056;-49
2023/08/06 11:26:00;;;;;;;1.98;1.48;;;29.60;73.60;;;;;;5030221;28;20036;-47
2023/08/06 11:28:26;;;;;;;1.42;1.33;;;30.60;71.40;;;;;;5029903;28;20029;-47
2023/08/06 11:30:53;;;;;;;1.60;1.27;;;30.30;70.70;;;;;;5029819;28;20018;-48
2023/08/06 11:33:25;;;;;;;2.38;1.20;;;29.40;73.50;;;;;;5011603;28;20029;-46
2023/08/06 11:35:51;;;;;;;1.30;1.20;;;28.60;75.00;;;;;;5030154;28;20056;-48
2023/08/06 11:38:17;;;;;;;1.35;1.15;;;28.00;78.20;;;;;;5012117;28;20097;-47
2023/08/06 11:40:47;;;;;;;1.98;1.52;;;27.30;77.90;;;;;;5011976;28;20025;-46
2023/08/06 11:43:13;;;;;;;2.13;1.60;;;26.60;78.80;;;;;;5029286;28;20071;-48
2023/08/06 11:45:38;;;;;;;1.70;1.60;;;26.20;81.20;;;;;;5029926;28;20029;-48
2023/08/06 11:48:05;;;;;;;2.20;1.73;;;25.80;82.20;;;;;;5012027;28;20165;-47
2023/08/06 11:50:31;;;;;;;1.63;1.50;;;26.00;81.90;;;;;;5011832;28;20139;-47
2023/08/06 11:52:58;;;;;;;4.60;1.50;;;26.00;83.60;;;;;;5029162;28;20242;-46
2023/08/06 11:55:25;;;;;;;5.10;1.70;;;26.00;80.60;;;;;;5029593;28;20030;-48
2023/08/06 11:57:51;;;;;;;2.53;1.85;;;25.80;80.30;;;;;;5030150;28;20022;-47
2023/08/06 12:00:21;;;;;;;1.75;1.60;;;25.50;81.20;;;;;;5011910;28;20025;-47
2023/08/06 12:02:49;;;;;;;2.53;1.80;;;25.30;84.00;;;;;;5029207;28;20026;-47
2023/08/06 12:05:20;;;;;;;2.35;1.70;;;25.00;85.20;;;;;;5011403;28;20025;-48
2023/08/06 12:07:48;;;;;;;2.13;1.90;;;24.70;84.90;;;;;;5029745;28;20021;-49
2023/08/06 12:10:15;;;;;;;2.08;1.88;;;24.70;84.30;;;;;;5029608;28;20053;-50
2023/08/06 12:12:41;;;;;;;2.30;2.08;;;25.00;84.90;;;;;;5029131;28;20025;-49
2023/08/06 12:15:08;;;;;;;2.00;1.52;;;25.30;87.10;;;;;;5029145;28;20181;-47
2023/08/06 12:17:34;;;;;;;3.20;1.80;;;25.20;86.60;;;;;;5029464;28;20045;-49
2023/08/06 12:20:00;;;;;;;2.53;2.10;;;25.20;85.20;;;;;;5031018;28;20082;-49
2023/08/06 12:22:25;;;;;;;2.45;1.63;;;25.50;83.90;;;;;;5033132;28;20161;-46
2023/08/06 12:24:51;;;;;;;2.00;1.77;;;26.00;83.20;;;;;;5032791;28;20028;-48
2023/08/06 12:27:17;;;;;;;1.83;1.73;;;25.80;83.00;;;;;;5015462;28;20033;-48
2023/08/06 12:29:44;;;;;;;2.00;1.80;;;25.70;81.80;;;;;;5015265;28;20033;-49
2023/08/06 12:32:11;;;;;;;3.63;2.00;;;25.90;81.70;;;;;;5032924;28;20037;-47
2023/08/06 12:34:39;;;;;;;2.30;2.10;;;26.20;83.00;;;;;;5032535;28;20484;-48
2023/08/06 12:37:04;;;;;;;2.45;2.00;;;26.30;84.00;;;;;;5033166;28;20463;-48
2023/08/06 12:39:31;;;;;;;2.03;1.83;;;26.40;90.00;;;;;;5032830;28;20053;-49
2023/08/06 12:41:57;;;;;;;2.58;1.92;;;26.50;85.00;;;;;;5032839;28;20013;-49
2023/08/06 12:44:24;;;;;;;3.38;1.80;;;26.20;85.60;;;;;;5032257;28;20036;-49
2023/08/06 12:46:50;;;;;;;1.80;1.70;;;25.90;85.50;;;;;;5032988;28;20089;-50